createdAt,value
2018-12-23T00:00:43.775Z,7.80
2018-12-23T00:03:11.397Z,7.80
2018-12-23T00:05:38.842Z,7.80
2018-12-23T00:10:34.945Z,7.70
2018-12-23T00:13:02.407Z,7.60
2018-12-23T00:15:29.964Z,7.70
2018-12-23T00:17:57.418Z,7.70
2018-12-23T00:20:24.897Z,7.80
2018-12-23T00:22:52.384Z,7.80
2018-12-23T00:28:20.348Z,7.70
2018-12-23T00:30:48.542Z,7.70
2018-12-23T00:33:16.402Z,7.90
2018-12-23T00:38:43.613Z,7.90
2018-12-23T00:41:11.128Z,7.90
2018-12-23T00:43:38.604Z,7.90
2018-12-23T00:46:06.223Z,7.90
2018-12-23T00:48:33.680Z,7.90
2018-12-23T00:51:01.121Z,7.90
2018-12-23T00:53:28.600Z,7.80
2018-12-23T00:55:56.125Z,7.80
2018-12-23T00:58:23.690Z,7.80
2018-12-23T01:00:51.295Z,7.70
2018-12-23T01:03:18.735Z,7.70
2018-12-23T01:05:46.350Z,7.80
2018-12-23T01:08:13.820Z,7.70
2018-12-23T01:10:41.263Z,7.70
2018-12-23T01:13:08.690Z,7.60
2018-12-23T01:15:36.096Z,7.50
2018-12-23T01:18:03.592Z,7.40
2018-12-23T01:20:31.027Z,7.40
2018-12-23T01:22:58.580Z,7.50
2018-12-23T01:25:31.589Z,7.40
2018-12-23T01:28:05.251Z,7.40
2018-12-23T01:30:39.035Z,7.40
2018-12-23T01:36:05.853Z,7.60
2018-12-23T01:38:33.263Z,7.70
2018-12-23T01:41:00.706Z,7.70
2018-12-23T01:43:28.386Z,7.80
2018-12-23T01:45:55.861Z,7.70
2018-12-23T01:48:23.396Z,7.80
2018-12-23T01:50:50.882Z,7.80
2018-12-23T01:53:18.322Z,7.80
2018-12-23T01:55:45.776Z,7.90
2018-12-23T02:01:12.683Z,7.80
2018-12-23T02:03:40.142Z,7.80
2018-12-23T02:06:07.561Z,7.80
2018-12-23T02:08:35.037Z,7.80
2018-12-23T02:11:02.462Z,7.90
2018-12-23T02:13:29.928Z,7.90
2018-12-23T02:15:57.368Z,7.90
2018-12-23T02:18:24.782Z,7.90
2018-12-23T02:20:52.235Z,7.80
2018-12-23T02:23:19.679Z,7.90
2018-12-23T02:25:47.182Z,8.00
2018-12-23T02:28:14.604Z,7.90
2018-12-23T02:30:42.055Z,7.90
2018-12-23T02:33:09.716Z,7.90
2018-12-23T02:35:55.755Z,7.90
2018-12-23T02:38:29.405Z,8.00
2018-12-23T02:41:15.998Z,7.90
2018-12-23T02:43:43.464Z,7.90
2018-12-23T02:46:10.948Z,7.80
2018-12-23T02:48:44.159Z,7.70
2018-12-23T02:51:11.669Z,7.70
2018-12-23T02:53:39.088Z,7.70
2018-12-23T02:56:06.538Z,7.70
2018-12-23T02:58:33.998Z,7.70
2018-12-23T03:01:01.430Z,7.70
2018-12-23T03:03:29.009Z,7.70
2018-12-23T03:06:05.403Z,7.70
2018-12-23T03:08:25.986Z,7.70
2018-12-23T03:10:53.487Z,7.80
2018-12-23T03:13:20.946Z,7.60
2018-12-23T03:15:48.395Z,7.80
2018-12-23T03:18:15.877Z,7.70
2018-12-23T03:20:43.339Z,7.70
2018-12-23T03:23:10.748Z,7.70
2018-12-23T03:25:38.202Z,7.60
2018-12-23T03:28:05.742Z,7.60
2018-12-23T03:30:33.159Z,7.50
2018-12-23T03:33:00.737Z,7.60
2018-12-23T03:35:28.381Z,7.50
2018-12-23T03:37:55.799Z,7.60
2018-12-23T03:40:23.251Z,7.50
2018-12-23T03:42:50.806Z,7.50
2018-12-23T03:45:18.304Z,7.50
2018-12-23T03:47:45.781Z,7.50
2018-12-23T03:50:13.272Z,7.50
2018-12-23T03:52:40.719Z,7.50
2018-12-23T03:58:44.776Z,7.50
2018-12-23T04:01:12.492Z,7.40
2018-12-23T04:03:40.215Z,7.40
2018-12-23T04:06:08.097Z,7.40
2018-12-23T04:08:35.840Z,7.30
2018-12-23T04:11:03.697Z,7.40
2018-12-23T04:13:31.488Z,7.40
2018-12-23T04:15:59.215Z,7.40
2018-12-23T04:18:27.320Z,7.40
2018-12-23T04:20:55.496Z,7.40
2018-12-23T04:23:23.652Z,7.50
2018-12-23T04:25:51.855Z,7.50
2018-12-23T04:28:19.972Z,7.50
2018-12-23T04:30:48.332Z,7.40
2018-12-23T04:33:16.089Z,7.30
2018-12-23T04:35:43.836Z,7.30
2018-12-23T04:38:11.559Z,7.40
2018-12-23T04:40:39.250Z,7.20
2018-12-23T04:43:06.971Z,7.40
2018-12-23T04:45:34.705Z,7.30
2018-12-23T04:48:02.544Z,7.20
2018-12-23T04:50:30.376Z,7.40
2018-12-23T04:55:43.387Z,7.20
2018-12-23T04:58:11.173Z,7.30
2018-12-23T05:00:39.046Z,7.20
2018-12-23T05:03:06.794Z,7.20
2018-12-23T05:05:34.614Z,7.20
2018-12-23T05:08:02.364Z,7.20
2018-12-23T05:10:30.203Z,7.20
2018-12-23T05:12:57.931Z,7.20
2018-12-23T05:15:25.745Z,7.20
2018-12-23T05:17:53.453Z,7.10
2018-12-23T05:20:21.180Z,7.10
2018-12-23T05:22:48.948Z,7.20
2018-12-23T05:25:16.715Z,7.20
2018-12-23T05:27:44.468Z,7.00
2018-12-23T05:30:12.373Z,7.20
2018-12-23T05:32:40.252Z,7.00
2018-12-23T05:35:08.167Z,7.00
2018-12-23T05:37:35.919Z,7.00
2018-12-23T05:40:03.963Z,7.00
2018-12-23T05:42:31.676Z,7.00
2018-12-23T05:44:59.483Z,7.00
2018-12-23T05:47:27.216Z,7.00
2018-12-23T05:49:55.181Z,7.10
2018-12-23T05:52:23.864Z,7.10
2018-12-23T05:54:52.853Z,7.10
2018-12-23T05:57:20.739Z,7.00
2018-12-23T05:59:48.578Z,7.00
2018-12-23T06:02:16.425Z,7.10
2018-12-23T06:04:44.258Z,7.20
2018-12-23T06:07:12.122Z,7.20
2018-12-23T06:09:39.944Z,7.10
2018-12-23T06:12:07.691Z,7.00
2018-12-23T06:14:35.431Z,7.10
2018-12-23T06:17:03.176Z,7.10
2018-12-23T06:19:31.000Z,7.20
2018-12-23T06:21:58.753Z,7.20
2018-12-23T06:24:26.504Z,7.30
2018-12-23T06:26:54.376Z,7.20
2018-12-23T06:29:22.128Z,7.20
2018-12-23T06:32:09.313Z,7.10
2018-12-23T06:34:37.106Z,7.20
2018-12-23T06:37:09.934Z,7.10
2018-12-23T06:39:34.580Z,7.10
2018-12-23T06:42:02.403Z,7.10
2018-12-23T06:44:30.189Z,7.10
2018-12-23T06:46:58.008Z,7.10
2018-12-23T06:49:25.859Z,7.10
2018-12-23T06:51:53.672Z,7.20
2018-12-23T06:54:21.423Z,7.20
2018-12-23T06:56:49.210Z,7.20
2018-12-23T06:59:16.928Z,7.30
2018-12-23T07:01:44.664Z,7.20
2018-12-23T07:04:12.517Z,7.30
2018-12-23T07:06:40.343Z,7.30
2018-12-23T07:09:08.052Z,7.30
2018-12-23T07:11:35.804Z,7.40
2018-12-23T07:14:03.565Z,7.40
2018-12-23T07:16:31.513Z,7.40
2018-12-23T07:18:59.656Z,7.50
2018-12-23T07:21:27.833Z,7.40
2018-12-23T07:23:55.983Z,7.60
2018-12-23T07:26:25.484Z,7.70
2018-12-23T07:28:53.629Z,7.60
2018-12-23T07:31:21.648Z,7.70
2018-12-23T07:33:49.750Z,7.70
2018-12-23T07:36:17.903Z,7.60
2018-12-23T07:38:46.095Z,7.80
2018-12-23T07:41:14.238Z,7.80
2018-12-23T07:43:42.408Z,7.80
2018-12-23T07:46:10.569Z,7.80
2018-12-23T07:48:38.783Z,7.90
2018-12-23T07:51:06.974Z,7.80
2018-12-23T07:53:38.103Z,7.90
2018-12-23T07:56:06.225Z,7.80
2018-12-23T07:58:37.462Z,7.90
2018-12-23T08:01:05.639Z,7.90
2018-12-23T08:03:33.826Z,8.00
2018-12-23T08:08:55.799Z,8.00
2018-12-23T08:11:24.601Z,8.10
2018-12-23T08:13:55.898Z,8.10
2018-12-23T08:16:24.905Z,8.10
2018-12-23T08:18:53.199Z,8.20
2018-12-23T08:21:21.425Z,8.30
2018-12-23T08:23:50.002Z,8.30
2018-12-23T08:26:18.036Z,8.40
2018-12-23T08:28:46.279Z,8.40
2018-12-23T08:31:15.471Z,8.40
2018-12-23T08:33:47.127Z,8.40
2018-12-23T08:36:15.498Z,8.40
2018-12-23T08:38:43.595Z,8.50
2018-12-23T08:41:12.160Z,8.50
2018-12-23T08:43:42.996Z,8.70
2018-12-23T08:46:11.435Z,8.70
2018-12-23T08:48:47.962Z,8.70
2018-12-23T08:51:18.249Z,8.80
2018-12-23T08:53:46.580Z,8.70
2018-12-23T08:56:19.169Z,8.80
2018-12-23T08:58:47.012Z,8.80
2018-12-23T09:01:15.295Z,8.80
2018-12-23T09:03:43.086Z,8.90
2018-12-23T09:06:11.043Z,9.00
2018-12-23T09:08:39.132Z,9.00
2018-12-23T09:11:06.998Z,9.10
2018-12-23T09:13:35.163Z,9.00
2018-12-23T09:16:03.002Z,9.10
2018-12-23T09:18:30.894Z,9.10
2018-12-23T09:20:58.614Z,9.10
2018-12-23T09:23:26.357Z,9.20
2018-12-23T09:25:55.128Z,9.20
2018-12-23T09:28:22.900Z,9.20
2018-12-23T09:30:50.938Z,9.20
2018-12-23T09:33:18.827Z,9.20
2018-12-23T09:35:47.359Z,9.30
2018-12-23T09:38:15.733Z,9.20
2018-12-23T09:40:43.543Z,9.40
2018-12-23T09:43:11.256Z,9.40
2018-12-23T09:45:39.240Z,9.30
2018-12-23T09:48:07.139Z,9.30
2018-12-23T09:50:35.321Z,9.40
2018-12-23T09:53:03.527Z,9.40
2018-12-23T09:55:31.752Z,9.40
2018-12-23T09:57:59.866Z,9.40
2018-12-23T10:00:28.470Z,9.40
2018-12-23T10:02:58.093Z,9.50
2018-12-23T10:05:26.231Z,9.50
2018-12-23T10:07:54.693Z,9.50
2018-12-23T10:10:28.419Z,9.40
2018-12-23T10:12:52.720Z,9.50
2018-12-23T10:15:21.197Z,9.50
2018-12-23T10:17:49.033Z,9.50
2018-12-23T10:20:16.801Z,9.60
2018-12-23T10:22:44.777Z,9.50
2018-12-23T10:25:12.709Z,9.50
2018-12-23T10:27:40.545Z,9.50
2018-12-23T10:30:08.347Z,9.50
2018-12-23T10:32:36.200Z,9.40
2018-12-23T10:35:04.244Z,9.50
2018-12-23T10:37:32.238Z,9.50
2018-12-23T10:40:00.280Z,9.50
2018-12-23T10:42:34.152Z,9.50
2018-12-23T10:45:02.042Z,9.30
2018-12-23T10:47:29.894Z,9.40
2018-12-23T10:49:57.724Z,9.40
2018-12-23T10:52:25.560Z,9.30
2018-12-23T10:54:53.364Z,9.30
2018-12-23T10:57:21.213Z,9.20
2018-12-23T10:59:49.076Z,9.30
2018-12-23T11:02:16.983Z,9.30
2018-12-23T11:04:44.777Z,9.30
2018-12-23T11:07:40.280Z,9.20
2018-12-23T11:10:08.171Z,9.30
2018-12-23T11:12:37.391Z,9.30
2018-12-23T11:15:05.657Z,9.40
2018-12-23T11:17:33.407Z,9.40
2018-12-23T11:20:01.209Z,9.50
2018-12-23T11:22:28.913Z,9.60
2018-12-23T11:24:57.007Z,9.60
2018-12-23T11:27:24.909Z,9.60
2018-12-23T11:29:52.944Z,9.80
2018-12-23T11:32:21.267Z,9.80
2018-12-23T11:34:49.074Z,9.80
2018-12-23T11:37:17.896Z,9.90
2018-12-23T11:39:45.628Z,9.90
2018-12-23T11:42:13.461Z,9.90
2018-12-23T11:44:41.166Z,10.00
2018-12-23T11:47:08.906Z,10.00
2018-12-23T11:49:36.643Z,10.00
2018-12-23T11:52:04.377Z,10.00
2018-12-23T11:54:32.127Z,10.10
2018-12-23T11:56:59.885Z,10.10
2018-12-23T11:59:27.781Z,10.10
2018-12-23T12:01:55.734Z,10.10
2018-12-23T12:04:23.608Z,10.00
2018-12-23T12:06:51.449Z,10.10
2018-12-23T12:09:19.373Z,10.10
2018-12-23T12:11:47.173Z,10.00
2018-12-23T12:14:15.025Z,10.00
2018-12-23T12:16:42.975Z,10.00
2018-12-23T12:19:11.007Z,10.00
2018-12-23T12:21:38.956Z,10.00
2018-12-23T12:24:06.859Z,9.90
2018-12-23T12:26:34.734Z,10.00
2018-12-23T12:29:02.571Z,10.00
2018-12-23T12:31:30.360Z,9.90
2018-12-23T12:33:58.179Z,9.90
2018-12-23T12:36:25.940Z,9.90
2018-12-23T12:38:53.685Z,9.80
2018-12-23T12:41:21.464Z,9.80
2018-12-23T12:43:49.176Z,9.80
2018-12-23T12:46:16.898Z,9.80
2018-12-23T12:48:44.710Z,9.70
2018-12-23T12:51:12.480Z,9.70
2018-12-23T12:53:40.290Z,9.70
2018-12-23T12:56:08.059Z,9.50
2018-12-23T12:58:35.892Z,9.50
2018-12-23T13:01:03.774Z,9.40
2018-12-23T13:03:31.531Z,9.50
2018-12-23T13:05:59.381Z,9.60
2018-12-23T13:08:27.139Z,9.50
2018-12-23T13:10:54.884Z,9.40
2018-12-23T13:13:22.639Z,9.40
2018-12-23T13:15:50.407Z,9.50
2018-12-23T13:18:18.271Z,9.40
2018-12-23T13:20:46.152Z,9.40
2018-12-23T13:23:13.989Z,9.40
2018-12-23T13:25:41.742Z,9.50
2018-12-23T13:28:09.515Z,9.40
2018-12-23T13:30:37.256Z,9.30
2018-12-23T13:33:05.115Z,9.30
2018-12-23T13:35:32.852Z,9.30
2018-12-23T13:38:00.588Z,9.20
2018-12-23T13:40:49.833Z,9.30
2018-12-23T13:43:50.130Z,9.30
2018-12-23T13:47:05.496Z,9.10
2018-12-23T13:50:09.898Z,9.10
2018-12-23T13:53:00.666Z,9.10
2018-12-23T13:56:13.321Z,8.90
2018-12-23T13:59:28.978Z,8.90
2018-12-23T14:02:18.640Z,8.80
2018-12-23T14:05:41.771Z,8.90
2018-12-23T14:08:40.963Z,8.80
2018-12-23T14:11:44.830Z,8.70
2018-12-23T14:14:12.711Z,8.80
2018-12-23T14:16:40.658Z,8.80
2018-12-23T14:19:08.582Z,8.80
2018-12-23T14:21:36.382Z,8.70
2018-12-23T14:24:04.278Z,8.60
2018-12-23T14:26:32.291Z,8.80
2018-12-23T14:29:00.041Z,8.70
2018-12-23T14:31:27.879Z,8.70
2018-12-23T14:33:55.627Z,8.60
2018-12-23T14:36:23.404Z,8.70
2018-12-23T14:38:51.251Z,8.70
2018-12-23T14:41:19.245Z,8.50
2018-12-23T14:43:47.033Z,8.60
2018-12-23T14:46:14.986Z,8.50
2018-12-23T14:48:42.927Z,8.50
2018-12-23T14:51:10.753Z,8.50
2018-12-23T14:53:38.579Z,8.40
2018-12-23T14:56:06.346Z,8.30
2018-12-23T14:58:34.604Z,8.50
2018-12-23T15:01:02.431Z,8.40
2018-12-23T15:03:30.252Z,8.40
2018-12-23T15:05:58.068Z,8.40
2018-12-23T15:08:25.909Z,8.30
2018-12-23T15:10:53.679Z,8.30
2018-12-23T15:13:21.447Z,8.30
2018-12-23T15:15:49.251Z,8.30
2018-12-23T15:18:17.094Z,8.30
2018-12-23T15:20:44.919Z,8.30
2018-12-23T15:23:13.033Z,8.20
2018-12-23T15:25:40.777Z,8.20
2018-12-23T15:28:08.643Z,8.10
2018-12-23T15:30:36.461Z,8.20
2018-12-23T15:33:04.335Z,8.10
2018-12-23T15:35:32.305Z,8.20
2018-12-23T15:38:00.239Z,8.10
2018-12-23T15:40:28.209Z,8.20
2018-12-23T15:42:56.072Z,8.20
2018-12-23T15:45:23.920Z,8.20
2018-12-23T15:47:51.882Z,8.20
2018-12-23T15:50:19.817Z,8.20
2018-12-23T15:52:47.683Z,8.30
2018-12-23T15:55:15.962Z,8.30
2018-12-23T15:57:43.867Z,8.30
2018-12-23T16:00:11.752Z,8.20
2018-12-23T16:02:39.668Z,8.20
2018-12-23T16:05:07.603Z,8.20
2018-12-23T16:07:35.521Z,8.20
2018-12-23T16:10:03.647Z,8.20
2018-12-23T16:12:31.486Z,8.20
2018-12-23T16:14:59.268Z,8.30
2018-12-23T16:17:27.126Z,8.30
2018-12-23T16:19:55.060Z,8.20
2018-12-23T16:22:22.971Z,8.20
2018-12-23T16:24:50.831Z,8.20
2018-12-23T16:27:18.696Z,8.10
2018-12-23T16:29:46.542Z,8.30
2018-12-23T16:32:14.376Z,8.30
2018-12-23T16:34:42.316Z,8.30
2018-12-23T16:37:10.161Z,8.20
2018-12-23T16:39:38.060Z,8.20
2018-12-23T16:42:05.883Z,8.40
2018-12-23T16:44:35.795Z,8.30
2018-12-23T16:47:03.665Z,8.30
2018-12-23T16:49:32.061Z,8.20
2018-12-23T16:51:59.828Z,8.20
2018-12-23T16:54:27.588Z,8.20
2018-12-23T16:56:55.325Z,8.20
2018-12-23T16:59:23.060Z,8.30
2018-12-23T17:01:50.921Z,8.30
2018-12-23T17:04:18.778Z,8.40
2018-12-23T17:06:46.588Z,8.40
2018-12-23T17:09:14.433Z,8.30
2018-12-23T17:11:42.236Z,8.30
2018-12-23T17:14:10.775Z,8.40
2018-12-23T17:16:38.729Z,8.40
2018-12-23T17:19:06.574Z,8.50
2018-12-23T17:21:34.415Z,8.40
2018-12-23T17:24:02.259Z,8.40
2018-12-23T17:26:30.144Z,8.40
2018-12-23T17:28:57.927Z,8.50
2018-12-23T17:31:25.929Z,8.50
2018-12-23T17:33:53.761Z,8.40
2018-12-23T17:36:21.501Z,8.40
2018-12-23T17:38:49.252Z,8.50
2018-12-23T17:41:17.105Z,8.40
2018-12-23T17:43:44.912Z,8.30
2018-12-23T17:46:12.647Z,8.50
2018-12-23T17:48:40.434Z,8.50
2018-12-23T17:51:08.287Z,8.50
2018-12-23T17:53:36.124Z,8.40
2018-12-23T17:56:03.891Z,8.50
2018-12-23T17:58:31.588Z,8.40
2018-12-23T18:00:59.372Z,8.50
2018-12-23T18:03:27.219Z,8.50
2018-12-23T18:05:54.994Z,8.50
2018-12-23T18:08:22.741Z,8.60
2018-12-23T18:10:50.511Z,8.50
2018-12-23T18:13:18.346Z,8.50
2018-12-23T18:15:46.180Z,8.60
2018-12-23T18:18:14.002Z,8.60
2018-12-23T18:20:41.847Z,8.50
2018-12-23T18:23:09.710Z,8.50
2018-12-23T18:25:37.508Z,8.50
2018-12-23T18:28:05.367Z,8.60
2018-12-23T18:30:33.184Z,8.60
2018-12-23T18:33:00.892Z,8.60
2018-12-23T18:35:29.356Z,8.50
2018-12-23T18:37:57.233Z,8.70
2018-12-23T18:40:33.155Z,8.60
2018-12-23T18:42:54.624Z,8.60
2018-12-23T18:45:22.639Z,8.70
2018-12-23T18:47:50.441Z,8.70
2018-12-23T18:50:18.295Z,8.70
2018-12-23T18:52:47.789Z,8.70
2018-12-23T18:55:15.882Z,8.70
2018-12-23T18:57:45.955Z,8.70
2018-12-23T19:00:13.767Z,8.70
2018-12-23T19:02:48.258Z,8.60
2018-12-23T19:05:16.063Z,8.60
2018-12-23T19:07:45.967Z,8.80
2018-12-23T19:10:42.020Z,8.80
2018-12-23T19:14:06.405Z,8.70
2018-12-23T19:17:06.017Z,8.80
2018-12-23T19:20:10.575Z,8.80
2018-12-23T19:23:08.079Z,8.80
2018-12-23T19:26:19.151Z,8.70
2018-12-23T19:28:57.892Z,8.90
2018-12-23T19:31:58.761Z,8.80
2018-12-23T19:35:07.205Z,8.80
2018-12-23T19:38:05.127Z,8.80
2018-12-23T19:41:10.815Z,8.80
2018-12-23T19:44:18.377Z,8.80
2018-12-23T19:47:37.166Z,8.90
2018-12-23T19:50:28.588Z,8.90
2018-12-23T19:53:20.338Z,8.80
2018-12-23T19:56:31.448Z,9.00
2018-12-23T19:59:43.850Z,9.00
2018-12-23T20:02:59.520Z,9.20
2018-12-23T20:05:59.490Z,9.00
2018-12-23T20:09:06.172Z,9.20
2018-12-23T20:12:21.607Z,9.10
2018-12-23T20:15:27.083Z,9.40
2018-12-23T20:18:20.957Z,9.30
2018-12-23T20:21:45.802Z,9.30
2018-12-23T20:24:52.372Z,9.40
2018-12-23T20:27:56.519Z,9.50
2018-12-23T20:31:21.195Z,9.60
2018-12-23T20:34:14.490Z,9.50
2018-12-23T20:37:14.556Z,9.50
2018-12-23T20:40:14.978Z,9.70
2018-12-23T20:43:30.799Z,9.60
2018-12-23T20:46:28.301Z,9.80
2018-12-23T20:49:20.503Z,9.70
2018-12-23T20:52:25.683Z,9.80
2018-12-23T20:55:25.784Z,9.80
2018-12-23T20:58:37.526Z,9.80
2018-12-23T21:01:46.191Z,9.90
2018-12-23T21:04:56.472Z,10.00
2018-12-23T21:07:56.924Z,10.10
2018-12-23T21:10:49.804Z,10.30
2018-12-23T21:13:56.789Z,10.40
2018-12-23T21:17:13.847Z,10.40
2018-12-23T21:20:28.420Z,10.40
2018-12-23T21:23:34.778Z,10.40
2018-12-23T21:26:33.531Z,10.40
2018-12-23T21:29:37.864Z,10.50
2018-12-23T21:32:45.534Z,10.70
2018-12-23T21:35:59.579Z,10.70
2018-12-23T21:39:04.333Z,10.60
2018-12-23T21:42:02.627Z,10.70
2018-12-23T21:45:13.820Z,10.70
2018-12-23T21:48:24.994Z,10.70
2018-12-23T21:51:29.216Z,10.80
2018-12-23T21:54:26.514Z,10.80
2018-12-23T21:57:48.501Z,11.00
2018-12-23T22:01:00.826Z,11.20
2018-12-23T22:04:21.135Z,11.10
2018-12-23T22:07:26.165Z,11.10
2018-12-23T22:10:21.757Z,11.20
2018-12-23T22:13:27.128Z,11.20
2018-12-23T22:15:55.424Z,11.20
2018-12-23T22:18:23.751Z,11.40
2018-12-23T22:20:51.607Z,11.50
2018-12-23T22:23:19.416Z,11.50
2018-12-23T22:25:47.790Z,11.70
2018-12-23T22:28:15.630Z,11.50
2018-12-23T22:30:43.448Z,11.40
2018-12-23T22:33:11.332Z,11.50
2018-12-23T22:35:39.056Z,11.70
2018-12-23T22:38:06.899Z,11.70
2018-12-23T22:40:36.420Z,11.60
2018-12-23T22:43:04.216Z,11.60
2018-12-23T22:45:32.051Z,11.70
2018-12-23T22:47:59.804Z,11.90
2018-12-23T22:50:27.637Z,12.00
2018-12-23T22:52:55.371Z,12.00
2018-12-23T22:55:23.215Z,11.90
2018-12-23T22:57:51.064Z,12.00
2018-12-23T23:00:20.673Z,11.90
2018-12-23T23:05:37.267Z,11.90
2018-12-23T23:08:05.130Z,12.00
2018-12-23T23:10:33.002Z,12.10
2018-12-23T23:13:00.795Z,12.20
2018-12-23T23:15:28.602Z,12.10
2018-12-23T23:17:56.483Z,12.10
2018-12-23T23:20:24.192Z,12.00
2018-12-23T23:22:51.942Z,12.00
2018-12-23T23:25:19.703Z,12.10
2018-12-23T23:27:47.540Z,12.00
2018-12-23T23:30:15.431Z,12.00
2018-12-23T23:32:43.333Z,12.10
2018-12-23T23:35:11.072Z,12.10
2018-12-23T23:37:38.885Z,12.10
2018-12-23T23:40:06.599Z,12.00
2018-12-23T23:42:34.328Z,12.00
2018-12-23T23:45:02.159Z,12.10
2018-12-23T23:47:30.008Z,12.10
2018-12-23T23:49:57.849Z,12.20
2018-12-23T23:52:25.573Z,12.20
2018-12-23T23:54:53.543Z,12.00
2018-12-23T23:57:21.362Z,11.90
2018-12-23T23:59:49.770Z,11.70
